Terminal Aerodrome Forecast
Issued by NWS

Home | Current Version | Previous Version | Text Only | Print | Product List | Glossary On
Versions: 1 2 3 4 5 6 7 8 9 10 11 12 13 14
000
FTUS45 KABQ 021000 AAA
TAFTCC
TAF AMD
KTCC 021029Z 0210/0306 08008KT P6SM FEW120
      TEMPO 0210/0213 5SM BR BKN015
     FM021600 26015G25KT P6SM SKC
     FM022000 26020G30KT P6SM FEW100=

USA.gov is the U.S. government's official web portal to all federal, state and local government web resources and services.